sensor_id;sensor_type;location;lat;lon;timestamp;P1;durP1;ratioP1;P2;durP2;ratioP2
211;SDS011;16228;48.800;9.002;2022-10-16T00:02:16;2.50;;;1.30;;
211;SDS011;16228;48.800;9.002;2022-10-16T00:05:01;1.40;;;1.03;;
211;SDS011;16228;48.800;9.002;2022-10-16T00:07:48;3.47;;;1.40;;
211;SDS011;16228;48.800;9.002;2022-10-16T00:10:34;4.80;;;1.57;;
211;SDS011;16228;48.800;9.002;2022-10-16T00:13:19;4.40;;;1.10;;
211;SDS011;16228;48.800;9.002;2022-10-16T00:16:05;1.80;;;1.40;;
211;SDS011;16228;48.800;9.002;2022-10-16T00:18:52;1.50;;;1.40;;
211;SDS011;16228;48.800;9.002;2022-10-16T00:21:37;1.90;;;1.10;;
211;SDS011;16228;48.800;9.002;2022-10-16T00:24:24;2.40;;;1.00;;
211;SDS011;16228;48.800;9.002;2022-10-16T00:27:10;5.53;;;1.80;;
211;SDS011;16228;48.800;9.002;2022-10-16T00:29:55;1.57;;;1.40;;
211;SDS011;16228;48.800;9.002;2022-10-16T00:32:41;2.83;;;1.70;;
211;SDS011;16228;48.800;9.002;2022-10-16T00:35:27;2.87;;;1.30;;
211;SDS011;16228;48.800;9.002;2022-10-16T00:38:12;1.33;;;1.20;;
211;SDS011;16228;48.800;9.002;2022-10-16T00:40:59;2.30;;;1.30;;
211;SDS011;16228;48.800;9.002;2022-10-16T00:43:46;2.53;;;1.40;;
211;SDS011;16228;48.800;9.002;2022-10-16T00:46:34;3.53;;;1.37;;
211;SDS011;16228;48.800;9.002;2022-10-16T00:49:22;3.00;;;1.50;;
211;SDS011;16228;48.800;9.002;2022-10-16T00:52:08;3.53;;;1.60;;
211;SDS011;16228;48.800;9.002;2022-10-16T00:54:55;2.77;;;1.47;;
211;SDS011;16228;48.800;9.002;2022-10-16T00:57:43;5.00;;;1.93;;
211;SDS011;16228;48.800;9.002;2022-10-16T01:00:30;3.57;;;1.57;;
211;SDS011;16228;48.800;9.002;2022-10-16T01:03:23;1.37;;;1.20;;
211;SDS011;16228;48.800;9.002;2022-10-16T01:06:18;2.50;;;1.53;;
211;SDS011;16228;48.800;9.002;2022-10-16T01:09:13;1.33;;;1.10;;
211;SDS011;16228;48.800;9.002;2022-10-16T01:12:05;2.67;;;1.70;;
211;SDS011;16228;48.800;9.002;2022-10-16T01:14:56;2.40;;;1.40;;
211;SDS011;16228;48.800;9.002;2022-10-16T01:17:48;2.60;;;1.47;;
211;SDS011;16228;48.800;9.002;2022-10-16T01:20:39;4.40;;;1.50;;
211;SDS011;16228;48.800;9.002;2022-10-16T01:23:36;1.60;;;1.37;;
211;SDS011;16228;48.800;9.002;2022-10-16T01:26:38;2.83;;;1.93;;
211;SDS011;16228;48.800;9.002;2022-10-16T01:29:37;2.70;;;1.67;;
211;SDS011;16228;48.800;9.002;2022-10-16T01:32:28;2.80;;;1.50;;
211;SDS011;16228;48.800;9.002;2022-10-16T01:35:20;2.27;;;1.70;;
211;SDS011;16228;48.800;9.002;2022-10-16T01:38:10;2.30;;;1.50;;
211;SDS011;16228;48.800;9.002;2022-10-16T01:41:06;3.27;;;1.50;;
211;SDS011;16228;48.800;9.002;2022-10-16T01:43:56;2.13;;;1.33;;
211;SDS011;16228;48.800;9.002;2022-10-16T01:46:48;3.17;;;1.53;;
211;SDS011;16228;48.800;9.002;2022-10-16T01:49:36;5.00;;;1.63;;
211;SDS011;16228;48.800;9.002;2022-10-16T01:52:25;1.70;;;1.60;;
211;SDS011;16228;48.800;9.002;2022-10-16T01:55:14;2.80;;;1.50;;
211;SDS011;16228;48.800;9.002;2022-10-16T01:58:02;1.50;;;1.40;;
211;SDS011;16228;48.800;9.002;2022-10-16T02:00:52;1.67;;;1.53;;
211;SDS011;16228;48.800;9.002;2022-10-16T02:03:41;2.20;;;1.40;;
211;SDS011;16228;48.800;9.002;2022-10-16T02:06:29;1.57;;;1.33;;
211;SDS011;16228;48.800;9.002;2022-10-16T02:09:15;2.67;;;1.40;;
211;SDS011;16228;48.800;9.002;2022-10-16T02:12:01;2.87;;;1.50;;
211;SDS011;16228;48.800;9.002;2022-10-16T02:14:52;2.03;;;1.37;;
211;SDS011;16228;48.800;9.002;2022-10-16T02:17:38;4.37;;;1.83;;
211;SDS011;16228;48.800;9.002;2022-10-16T02:20:27;4.30;;;1.30;;
211;SDS011;16228;48.800;9.002;2022-10-16T02:23:18;2.23;;;1.30;;
211;SDS011;16228;48.800;9.002;2022-10-16T02:26:10;1.57;;;1.47;;
211;SDS011;16228;48.800;9.002;2022-10-16T02:29:00;2.07;;;1.30;;
211;SDS011;16228;48.800;9.002;2022-10-16T02:31:51;4.77;;;1.67;;
211;SDS011;16228;48.800;9.002;2022-10-16T02:34:40;1.73;;;1.30;;
211;SDS011;16228;48.800;9.002;2022-10-16T02:37:27;1.70;;;1.23;;
211;SDS011;16228;48.800;9.002;2022-10-16T02:40:14;2.30;;;1.10;;
211;SDS011;16228;48.800;9.002;2022-10-16T02:43:02;1.87;;;1.17;;
211;SDS011;16228;48.800;9.002;2022-10-16T02:45:49;2.50;;;1.40;;
211;SDS011;16228;48.800;9.002;2022-10-16T02:48:35;1.53;;;1.30;;
211;SDS011;16228;48.800;9.002;2022-10-16T02:51:20;3.63;;;1.40;;
211;SDS011;16228;48.800;9.002;2022-10-16T02:54:07;1.50;;;1.20;;
211;SDS011;16228;48.800;9.002;2022-10-16T02:56:53;1.70;;;1.50;;
211;SDS011;16228;48.800;9.002;2022-10-16T02:59:38;5.07;;;1.50;;
211;SDS011;16228;48.800;9.002;2022-10-16T03:02:24;4.13;;;1.20;;
211;SDS011;16228;48.800;9.002;2022-10-16T03:05:10;2.50;;;1.80;;
211;SDS011;16228;48.800;9.002;2022-10-16T03:07:56;2.37;;;1.30;;
211;SDS011;16228;48.800;9.002;2022-10-16T03:10:45;2.13;;;1.20;;
211;SDS011;16228;48.800;9.002;2022-10-16T03:13:30;2.77;;;1.43;;
211;SDS011;16228;48.800;9.002;2022-10-16T03:16:16;1.30;;;1.20;;
211;SDS011;16228;48.800;9.002;2022-10-16T03:19:02;1.70;;;1.33;;
211;SDS011;16228;48.800;9.002;2022-10-16T03:21:47;1.33;;;1.20;;
211;SDS011;16228;48.800;9.002;2022-10-16T03:24:33;1.93;;;1.10;;
211;SDS011;16228;48.800;9.002;2022-10-16T03:27:20;5.77;;;1.50;;
211;SDS011;16228;48.800;9.002;2022-10-16T03:30:07;4.20;;;1.50;;
211;SDS011;16228;48.800;9.002;2022-10-16T03:32:53;2.27;;;1.20;;
211;SDS011;16228;48.800;9.002;2022-10-16T03:35:39;1.57;;;1.30;;
211;SDS011;16228;48.800;9.002;2022-10-16T03:38:25;1.30;;;1.13;;
211;SDS011;16228;48.800;9.002;2022-10-16T03:41:10;1.80;;;1.10;;
211;SDS011;16228;48.800;9.002;2022-10-16T03:43:58;3.17;;;1.23;;
211;SDS011;16228;48.800;9.002;2022-10-16T03:46:43;2.37;;;1.20;;
211;SDS011;16228;48.800;9.002;2022-10-16T03:49:29;2.97;;;1.40;;
211;SDS011;16228;48.800;9.002;2022-10-16T03:52:15;1.67;;;1.20;;
211;SDS011;16228;48.800;9.002;2022-10-16T03:55:00;1.70;;;1.40;;
211;SDS011;16228;48.800;9.002;2022-10-16T03:57:46;1.80;;;1.20;;
211;SDS011;16228;48.800;9.002;2022-10-16T04:00:33;1.80;;;1.30;;
211;SDS011;16228;48.800;9.002;2022-10-16T04:03:19;3.30;;;1.50;;
211;SDS011;16228;48.800;9.002;2022-10-16T04:06:05;2.20;;;1.47;;
211;SDS011;16228;48.800;9.002;2022-10-16T04:08:50;2.93;;;1.33;;
211;SDS011;16228;48.800;9.002;2022-10-16T04:11:36;2.90;;;1.43;;
211;SDS011;16228;48.800;9.002;2022-10-16T04:14:22;1.30;;;1.20;;
211;SDS011;16228;48.800;9.002;2022-10-16T04:17:09;1.87;;;1.43;;
211;SDS011;16228;48.800;9.002;2022-10-16T04:19:55;3.03;;;1.30;;
211;SDS011;16228;48.800;9.002;2022-10-16T04:22:41;1.53;;;1.20;;
211;SDS011;16228;48.800;9.002;2022-10-16T04:25:27;2.50;;;1.40;;
211;SDS011;16228;48.800;9.002;2022-10-16T04:28:12;1.40;;;1.30;;
211;SDS011;16228;48.800;9.002;2022-10-16T04:30:58;4.00;;;1.30;;
211;SDS011;16228;48.800;9.002;2022-10-16T04:33:46;3.60;;;1.50;;
211;SDS011;16228;48.800;9.002;2022-10-16T04:36:31;2.33;;;1.33;;
211;SDS011;16228;48.800;9.002;2022-10-16T04:39:18;3.87;;;1.30;;
211;SDS011;16228;48.800;9.002;2022-10-16T04:42:03;3.33;;;1.50;;
211;SDS011;16228;48.800;9.002;2022-10-16T04:44:49;3.50;;;1.40;;
211;SDS011;16228;48.800;9.002;2022-10-16T04:47:35;1.67;;;1.30;;
211;SDS011;16228;48.800;9.002;2022-10-16T04:50:22;1.90;;;1.50;;
211;SDS011;16228;48.800;9.002;2022-10-16T04:53:07;2.30;;;1.50;;
211;SDS011;16228;48.800;9.002;2022-10-16T04:55:53;1.97;;;1.50;;
211;SDS011;16228;48.800;9.002;2022-10-16T04:58:39;2.17;;;1.40;;
211;SDS011;16228;48.800;9.002;2022-10-16T05:01:25;1.63;;;1.33;;
211;SDS011;16228;48.800;9.002;2022-10-16T05:04:11;2.73;;;1.30;;
211;SDS011;16228;48.800;9.002;2022-10-16T05:06:59;5.87;;;1.37;;
211;SDS011;16228;48.800;9.002;2022-10-16T05:09:45;2.60;;;1.30;;
211;SDS011;16228;48.800;9.002;2022-10-16T05:12:31;4.30;;;1.47;;
211;SDS011;16228;48.800;9.002;2022-10-16T05:15:17;2.30;;;1.40;;
211;SDS011;16228;48.800;9.002;2022-10-16T05:18:03;1.97;;;1.40;;
211;SDS011;16228;48.800;9.002;2022-10-16T05:20:49;1.50;;;1.40;;
211;SDS011;16228;48.800;9.002;2022-10-16T05:23:36;2.13;;;1.53;;
211;SDS011;16228;48.800;9.002;2022-10-16T05:26:21;2.07;;;1.37;;
211;SDS011;16228;48.800;9.002;2022-10-16T05:29:07;2.40;;;1.40;;
211;SDS011;16228;48.800;9.002;2022-10-16T05:31:53;1.97;;;1.43;;
211;SDS011;16228;48.800;9.002;2022-10-16T05:34:39;2.70;;;1.60;;
211;SDS011;16228;48.800;9.002;2022-10-16T05:37:24;1.93;;;1.50;;
211;SDS011;16228;48.800;9.002;2022-10-16T05:40:11;2.40;;;1.33;;
211;SDS011;16228;48.800;9.002;2022-10-16T05:42:58;4.20;;;1.70;;
211;SDS011;16228;48.800;9.002;2022-10-16T05:45:43;2.53;;;1.53;;
211;SDS011;16228;48.800;9.002;2022-10-16T05:48:29;3.30;;;2.00;;
211;SDS011;16228;48.800;9.002;2022-10-16T05:51:16;2.50;;;1.60;;
211;SDS011;16228;48.800;9.002;2022-10-16T05:54:01;2.57;;;2.03;;
211;SDS011;16228;48.800;9.002;2022-10-16T05:56:48;1.93;;;1.73;;
211;SDS011;16228;48.800;9.002;2022-10-16T05:59:34;3.43;;;1.70;;
211;SDS011;16228;48.800;9.002;2022-10-16T06:02:20;2.10;;;1.53;;
211;SDS011;16228;48.800;9.002;2022-10-16T06:05:06;2.97;;;1.50;;
211;SDS011;16228;48.800;9.002;2022-10-16T06:07:52;4.80;;;1.50;;
211;SDS011;16228;48.800;9.002;2022-10-16T06:10:38;1.67;;;1.57;;
211;SDS011;16228;48.800;9.002;2022-10-16T06:13:25;3.13;;;1.67;;
211;SDS011;16228;48.800;9.002;2022-10-16T06:16:11;2.27;;;1.47;;
211;SDS011;16228;48.800;9.002;2022-10-16T06:18:57;1.70;;;1.50;;
211;SDS011;16228;48.800;9.002;2022-10-16T06:21:43;1.50;;;1.40;;
211;SDS011;16228;48.800;9.002;2022-10-16T06:24:30;3.23;;;1.40;;
211;SDS011;16228;48.800;9.002;2022-10-16T06:27:15;2.67;;;1.80;;
211;SDS011;16228;48.800;9.002;2022-10-16T06:30:02;2.17;;;1.60;;
211;SDS011;16228;48.800;9.002;2022-10-16T06:32:49;3.80;;;1.70;;
211;SDS011;16228;48.800;9.002;2022-10-16T06:35:35;2.70;;;1.70;;
211;SDS011;16228;48.800;9.002;2022-10-16T06:38:21;1.60;;;1.50;;
211;SDS011;16228;48.800;9.002;2022-10-16T06:41:07;1.83;;;1.60;;
211;SDS011;16228;48.800;9.002;2022-10-16T06:43:54;1.70;;;1.60;;
211;SDS011;16228;48.800;9.002;2022-10-16T06:46:41;2.13;;;1.70;;
211;SDS011;16228;48.800;9.002;2022-10-16T06:49:26;2.00;;;1.80;;
211;SDS011;16228;48.800;9.002;2022-10-16T06:52:12;4.63;;;1.90;;
211;SDS011;16228;48.800;9.002;2022-10-16T06:54:57;2.23;;;1.80;;
211;SDS011;16228;48.800;9.002;2022-10-16T06:57:43;3.20;;;1.60;;
211;SDS011;16228;48.800;9.002;2022-10-16T07:00:31;1.53;;;1.43;;
211;SDS011;16228;48.800;9.002;2022-10-16T07:03:18;1.53;;;1.43;;
211;SDS011;16228;48.800;9.002;2022-10-16T07:06:05;1.63;;;1.53;;
211;SDS011;16228;48.800;9.002;2022-10-16T07:08:52;1.80;;;1.70;;
211;SDS011;16228;48.800;9.002;2022-10-16T07:11:39;1.37;;;1.27;;
211;SDS011;16228;48.800;9.002;2022-10-16T07:14:25;1.90;;;1.20;;
211;SDS011;16228;48.800;9.002;2022-10-16T07:17:11;1.50;;;1.40;;
211;SDS011;16228;48.800;9.002;2022-10-16T07:19:58;2.30;;;1.70;;
211;SDS011;16228;48.800;9.002;2022-10-16T07:22:44;1.10;;;1.10;;
211;SDS011;16228;48.800;9.002;2022-10-16T07:25:30;1.30;;;1.20;;
211;SDS011;16228;48.800;9.002;2022-10-16T07:28:15;2.63;;;1.27;;
211;SDS011;16228;48.800;9.002;2022-10-16T07:31:01;2.83;;;1.40;;
211;SDS011;16228;48.800;9.002;2022-10-16T07:33:48;1.80;;;1.33;;
211;SDS011;16228;48.800;9.002;2022-10-16T07:36:36;2.57;;;1.40;;
211;SDS011;16228;48.800;9.002;2022-10-16T07:39:21;1.37;;;1.10;;
211;SDS011;16228;48.800;9.002;2022-10-16T07:42:07;3.00;;;1.50;;
211;SDS011;16228;48.800;9.002;2022-10-16T07:44:52;3.63;;;1.20;;
211;SDS011;16228;48.800;9.002;2022-10-16T07:47:38;1.63;;;1.20;;
211;SDS011;16228;48.800;9.002;2022-10-16T07:50:24;1.17;;;1.07;;
211;SDS011;16228;48.800;9.002;2022-10-16T07:53:11;1.47;;;1.33;;
211;SDS011;16228;48.800;9.002;2022-10-16T07:55:57;2.83;;;1.20;;
211;SDS011;16228;48.800;9.002;2022-10-16T07:58:43;3.57;;;1.27;;
211;SDS011;16228;48.800;9.002;2022-10-16T08:01:29;1.20;;;1.10;;
211;SDS011;16228;48.800;9.002;2022-10-16T08:04:15;1.10;;;1.00;;
211;SDS011;16228;48.800;9.002;2022-10-16T08:07:01;1.87;;;1.30;;
211;SDS011;16228;48.800;9.002;2022-10-16T08:09:50;1.40;;;1.10;;
211;SDS011;16228;48.800;9.002;2022-10-16T08:12:36;2.80;;;0.90;;
211;SDS011;16228;48.800;9.002;2022-10-16T08:15:22;2.10;;;1.20;;
211;SDS011;16228;48.800;9.002;2022-10-16T08:18:08;1.63;;;1.07;;
211;SDS011;16228;48.800;9.002;2022-10-16T08:20:56;1.23;;;1.13;;
211;SDS011;16228;48.800;9.002;2022-10-16T08:23:42;1.97;;;1.17;;
211;SDS011;16228;48.800;9.002;2022-10-16T08:26:29;1.90;;;1.13;;
211;SDS011;16228;48.800;9.002;2022-10-16T08:29:15;1.03;;;0.80;;
211;SDS011;16228;48.800;9.002;2022-10-16T08:32:00;2.33;;;0.90;;
211;SDS011;16228;48.800;9.002;2022-10-16T08:34:48;4.83;;;1.30;;
211;SDS011;16228;48.800;9.002;2022-10-16T08:37:34;2.43;;;1.10;;
211;SDS011;16228;48.800;9.002;2022-10-16T08:40:20;3.17;;;1.00;;
211;SDS011;16228;48.800;9.002;2022-10-16T08:43:18;1.10;;;1.00;;
211;SDS011;16228;48.800;9.002;2022-10-16T08:46:20;1.57;;;1.00;;
211;SDS011;16228;48.800;9.002;2022-10-16T08:49:14;1.10;;;1.00;;
211;SDS011;16228;48.800;9.002;2022-10-16T08:52:00;2.57;;;1.30;;
211;SDS011;16228;48.800;9.002;2022-10-16T08:54:47;2.03;;;1.00;;
211;SDS011;16228;48.800;9.002;2022-10-16T08:57:37;1.20;;;1.07;;
211;SDS011;16228;48.800;9.002;2022-10-16T09:00:24;1.60;;;1.27;;
211;SDS011;16228;48.800;9.002;2022-10-16T09:03:13;1.90;;;1.00;;
211;SDS011;16228;48.800;9.002;2022-10-16T09:09:30;1.23;;;1.00;;
211;SDS011;16228;48.800;9.002;2022-10-16T09:12:31;2.40;;;0.87;;
211;SDS011;16228;48.800;9.002;2022-10-16T09:15:24;1.47;;;1.07;;
211;SDS011;16228;48.800;9.002;2022-10-16T09:18:18;1.13;;;0.97;;
211;SDS011;16228;48.800;9.002;2022-10-16T09:21:11;1.63;;;1.00;;
211;SDS011;16228;48.800;9.002;2022-10-16T09:24:04;1.47;;;1.00;;
211;SDS011;16228;48.800;9.002;2022-10-16T09:26:56;2.83;;;1.10;;
211;SDS011;16228;48.800;9.002;2022-10-16T09:29:42;1.10;;;1.00;;
211;SDS011;16228;48.800;9.002;2022-10-16T09:32:29;1.27;;;1.03;;
211;SDS011;16228;48.800;9.002;2022-10-16T09:35:18;1.87;;;1.10;;
211;SDS011;16228;48.800;9.002;2022-10-16T09:38:05;2.53;;;0.90;;
211;SDS011;16228;48.800;9.002;2022-10-16T09:40:51;1.83;;;1.10;;
211;SDS011;16228;48.800;9.002;2022-10-16T09:43:39;1.57;;;0.83;;
211;SDS011;16228;48.800;9.002;2022-10-16T09:46:27;1.10;;;1.00;;
211;SDS011;16228;48.800;9.002;2022-10-16T09:49:22;1.50;;;0.87;;
211;SDS011;16228;48.800;9.002;2022-10-16T09:52:11;1.73;;;0.97;;
211;SDS011;16228;48.800;9.002;2022-10-16T09:54:58;1.33;;;1.23;;
211;SDS011;16228;48.800;9.002;2022-10-16T09:57:48;0.83;;;0.80;;
211;SDS011;16228;48.800;9.002;2022-10-16T10:00:34;4.03;;;1.23;;
211;SDS011;16228;48.800;9.002;2022-10-16T10:03:36;2.50;;;0.97;;
211;SDS011;16228;48.800;9.002;2022-10-16T10:06:26;0.73;;;0.73;;
211;SDS011;16228;48.800;9.002;2022-10-16T10:09:17;2.03;;;1.00;;
211;SDS011;16228;48.800;9.002;2022-10-16T10:12:06;1.13;;;0.80;;
211;SDS011;16228;48.800;9.002;2022-10-16T10:15:06;1.07;;;1.00;;
211;SDS011;16228;48.800;9.002;2022-10-16T10:17:56;2.83;;;1.07;;
211;SDS011;16228;48.800;9.002;2022-10-16T10:20:42;2.03;;;1.00;;
211;SDS011;16228;48.800;9.002;2022-10-16T10:23:29;1.27;;;0.90;;
211;SDS011;16228;48.800;9.002;2022-10-16T10:26:16;1.10;;;1.00;;
211;SDS011;16228;48.800;9.002;2022-10-16T10:29:06;1.50;;;1.03;;
211;SDS011;16228;48.800;9.002;2022-10-16T10:32:02;2.23;;;1.00;;
211;SDS011;16228;48.800;9.002;2022-10-16T10:35:02;2.43;;;0.90;;
211;SDS011;16228;48.800;9.002;2022-10-16T10:38:01;1.10;;;1.00;;
211;SDS011;16228;48.800;9.002;2022-10-16T10:40:59;3.47;;;0.90;;
211;SDS011;16228;48.800;9.002;2022-10-16T10:44:00;1.73;;;1.00;;
211;SDS011;16228;48.800;9.002;2022-10-16T10:46:51;2.60;;;0.80;;
211;SDS011;16228;48.800;9.002;2022-10-16T10:49:44;2.10;;;0.90;;
211;SDS011;16228;48.800;9.002;2022-10-16T10:52:41;1.73;;;0.80;;
211;SDS011;16228;48.800;9.002;2022-10-16T10:55:37;0.82;;;0.80;;
211;SDS011;16228;48.800;9.002;2022-10-16T10:58:46;2.28;;;1.00;;
211;SDS011;16228;48.800;9.002;2022-10-16T11:01:53;1.38;;;0.90;;
211;SDS011;16228;48.800;9.002;2022-10-16T11:04:50;1.05;;;1.00;;
211;SDS011;16228;48.800;9.002;2022-10-16T11:07:55;2.22;;;0.98;;
211;SDS011;16228;48.800;9.002;2022-10-16T11:10:49;0.93;;;0.82;;
211;SDS011;16228;48.800;9.002;2022-10-16T11:13:38;1.08;;;0.98;;
211;SDS011;16228;48.800;9.002;2022-10-16T11:16:35;0.88;;;0.80;;
211;SDS011;16228;48.800;9.002;2022-10-16T11:19:26;5.88;;;1.05;;
211;SDS011;16228;48.800;9.002;2022-10-16T11:22:20;1.65;;;1.30;;
211;SDS011;16228;48.800;9.002;2022-10-16T11:25:12;1.10;;;1.00;;
211;SDS011;16228;48.800;9.002;2022-10-16T11:28:02;1.07;;;0.90;;
211;SDS011;16228;48.800;9.002;2022-10-16T11:30:54;2.13;;;0.90;;
211;SDS011;16228;48.800;9.002;2022-10-16T11:33:45;3.63;;;1.33;;
211;SDS011;16228;48.800;9.002;2022-10-16T11:36:37;1.07;;;0.90;;
211;SDS011;16228;48.800;9.002;2022-10-16T11:39:26;2.13;;;1.00;;
211;SDS011;16228;48.800;9.002;2022-10-16T11:42:16;2.57;;;0.83;;
211;SDS011;16228;48.800;9.002;2022-10-16T11:48:15;2.92;;;0.90;;
211;SDS011;16228;48.800;9.002;2022-10-16T11:51:09;0.88;;;0.70;;
211;SDS011;16228;48.800;9.002;2022-10-16T11:54:02;1.48;;;0.90;;
211;SDS011;16228;48.800;9.002;2022-10-16T11:56:54;2.15;;;1.10;;
211;SDS011;16228;48.800;9.002;2022-10-16T11:59:45;3.65;;;1.10;;
211;SDS011;16228;48.800;9.002;2022-10-16T12:02:38;1.80;;;1.20;;
211;SDS011;16228;48.800;9.002;2022-10-16T12:05:39;2.35;;;1.20;;
211;SDS011;16228;48.800;9.002;2022-10-16T12:08:37;2.10;;;0.95;;
211;SDS011;16228;48.800;9.002;2022-10-16T12:11:31;1.93;;;1.60;;
211;SDS011;16228;48.800;9.002;2022-10-16T12:14:32;2.03;;;1.07;;
211;SDS011;16228;48.800;9.002;2022-10-16T12:17:24;4.53;;;1.37;;
211;SDS011;16228;48.800;9.002;2022-10-16T12:20:19;3.20;;;1.20;;
211;SDS011;16228;48.800;9.002;2022-10-16T12:23:19;2.70;;;1.77;;
211;SDS011;16228;48.800;9.002;2022-10-16T12:26:06;6.43;;;2.40;;
211;SDS011;16228;48.800;9.002;2022-10-16T12:28:52;8.40;;;2.13;;
211;SDS011;16228;48.800;9.002;2022-10-16T12:31:39;5.70;;;1.70;;
211;SDS011;16228;48.800;9.002;2022-10-16T12:34:29;1.55;;;0.95;;
211;SDS011;16228;48.800;9.002;2022-10-16T12:37:22;3.50;;;1.00;;
211;SDS011;16228;48.800;9.002;2022-10-16T12:40:12;1.48;;;0.95;;
211;SDS011;16228;48.800;9.002;2022-10-16T12:43:10;2.85;;;0.90;;
211;SDS011;16228;48.800;9.002;2022-10-16T12:46:01;1.23;;;1.00;;
211;SDS011;16228;48.800;9.002;2022-10-16T12:48:49;2.58;;;0.80;;
211;SDS011;16228;48.800;9.002;2022-10-16T12:51:35;1.92;;;0.85;;
211;SDS011;16228;48.800;9.002;2022-10-16T12:54:22;1.63;;;1.30;;
211;SDS011;16228;48.800;9.002;2022-10-16T12:57:01;1.77;;;1.00;;
211;SDS011;16228;48.800;9.002;2022-10-16T12:59:41;1.20;;;1.10;;
211;SDS011;16228;48.800;9.002;2022-10-16T13:05:25;0.98;;;0.82;;
211;SDS011;16228;48.800;9.002;2022-10-16T13:08:02;1.13;;;1.02;;
211;SDS011;16228;48.800;9.002;2022-10-16T13:10:59;2.67;;;0.93;;
211;SDS011;16228;48.800;9.002;2022-10-16T13:13:37;4.32;;;0.82;;
211;SDS011;16228;48.800;9.002;2022-10-16T13:16:18;1.10;;;0.98;;
211;SDS011;16228;48.800;9.002;2022-10-16T13:18:57;0.82;;;0.80;;
211;SDS011;16228;48.800;9.002;2022-10-16T13:21:33;3.37;;;1.10;;
211;SDS011;16228;48.800;9.002;2022-10-16T13:24:11;0.80;;;0.80;;
211;SDS011;16228;48.800;9.002;2022-10-16T13:26:49;0.80;;;0.80;;
211;SDS011;16228;48.800;9.002;2022-10-16T13:29:23;2.67;;;0.80;;
211;SDS011;16228;48.800;9.002;2022-10-16T13:31:55;0.97;;;0.80;;
211;SDS011;16228;48.800;9.002;2022-10-16T13:34:23;1.37;;;0.87;;
211;SDS011;16228;48.800;9.002;2022-10-16T13:36:52;1.03;;;0.80;;
211;SDS011;16228;48.800;9.002;2022-10-16T13:39:23;2.50;;;1.10;;
211;SDS011;16228;48.800;9.002;2022-10-16T13:42:00;2.50;;;1.00;;
211;SDS011;16228;48.800;9.002;2022-10-16T13:44:34;2.27;;;1.40;;
211;SDS011;16228;48.800;9.002;2022-10-16T13:47:05;2.03;;;1.50;;
211;SDS011;16228;48.800;9.002;2022-10-16T13:49:38;2.23;;;1.23;;
211;SDS011;16228;48.800;9.002;2022-10-16T13:52:15;1.53;;;0.80;;
211;SDS011;16228;48.800;9.002;2022-10-16T13:54:44;1.63;;;1.00;;
211;SDS011;16228;48.800;9.002;2022-10-16T13:57:12;1.23;;;1.13;;
211;SDS011;16228;48.800;9.002;2022-10-16T13:59:41;1.93;;;1.10;;
211;SDS011;16228;48.800;9.002;2022-10-16T14:02:14;2.00;;;1.20;;
211;SDS011;16228;48.800;9.002;2022-10-16T14:04:47;2.23;;;1.17;;
211;SDS011;16228;48.800;9.002;2022-10-16T14:07:18;1.30;;;1.20;;
211;SDS011;16228;48.800;9.002;2022-10-16T14:09:49;1.33;;;1.23;;
211;SDS011;16228;48.800;9.002;2022-10-16T14:12:17;2.17;;;1.33;;
211;SDS011;16228;48.800;9.002;2022-10-16T14:14:46;1.57;;;1.23;;
211;SDS011;16228;48.800;9.002;2022-10-16T14:17:15;1.00;;;1.00;;
211;SDS011;16228;48.800;9.002;2022-10-16T14:19:46;1.20;;;1.10;;
211;SDS011;16228;48.800;9.002;2022-10-16T14:22:26;5.50;;;1.20;;
211;SDS011;16228;48.800;9.002;2022-10-16T14:24:56;1.63;;;1.13;;
211;SDS011;16228;48.800;9.002;2022-10-16T14:27:26;3.20;;;1.37;;
211;SDS011;16228;48.800;9.002;2022-10-16T14:30:09;1.43;;;1.17;;
211;SDS011;16228;48.800;9.002;2022-10-16T14:32:41;1.93;;;1.20;;
211;SDS011;16228;48.800;9.002;2022-10-16T14:35:22;1.77;;;1.10;;
211;SDS011;16228;48.800;9.002;2022-10-16T14:37:51;1.67;;;1.30;;
211;SDS011;16228;48.800;9.002;2022-10-16T14:40:19;1.53;;;0.97;;
211;SDS011;16228;48.800;9.002;2022-10-16T14:42:48;1.80;;;1.50;;
211;SDS011;16228;48.800;9.002;2022-10-16T14:45:19;1.80;;;1.13;;
211;SDS011;16228;48.800;9.002;2022-10-16T14:47:48;2.90;;;1.27;;
211;SDS011;16228;48.800;9.002;2022-10-16T14:50:18;2.17;;;1.23;;
211;SDS011;16228;48.800;9.002;2022-10-16T14:52:45;3.57;;;1.73;;
211;SDS011;16228;48.800;9.002;2022-10-16T14:55:12;1.47;;;1.10;;
211;SDS011;16228;48.800;9.002;2022-10-16T14:57:39;3.63;;;1.20;;
211;SDS011;16228;48.800;9.002;2022-10-16T15:00:09;4.57;;;1.60;;
211;SDS011;16228;48.800;9.002;2022-10-16T15:02:42;2.00;;;1.20;;
211;SDS011;16228;48.800;9.002;2022-10-16T15:05:12;3.63;;;1.37;;
211;SDS011;16228;48.800;9.002;2022-10-16T15:07:42;2.23;;;1.30;;
211;SDS011;16228;48.800;9.002;2022-10-16T15:10:09;2.53;;;1.20;;
211;SDS011;16228;48.800;9.002;2022-10-16T15:12:36;1.93;;;1.10;;
211;SDS011;16228;48.800;9.002;2022-10-16T15:15:11;2.33;;;1.30;;
211;SDS011;16228;48.800;9.002;2022-10-16T15:17:50;3.13;;;1.80;;
211;SDS011;16228;48.800;9.002;2022-10-16T15:20:20;2.23;;;1.60;;
211;SDS011;16228;48.800;9.002;2022-10-16T15:22:47;1.37;;;1.27;;
211;SDS011;16228;48.800;9.002;2022-10-16T15:25:18;3.00;;;1.30;;
211;SDS011;16228;48.800;9.002;2022-10-16T15:27:58;1.40;;;1.30;;
211;SDS011;16228;48.800;9.002;2022-10-16T15:30:25;1.53;;;1.43;;
211;SDS011;16228;48.800;9.002;2022-10-16T15:32:54;2.13;;;2.03;;
211;SDS011;16228;48.800;9.002;2022-10-16T15:35:22;1.63;;;1.40;;
211;SDS011;16228;48.800;9.002;2022-10-16T15:37:49;2.70;;;1.75;;
211;SDS011;16228;48.800;9.002;2022-10-16T15:40:16;2.27;;;2.03;;
211;SDS011;16228;48.800;9.002;2022-10-16T15:42:45;2.57;;;2.20;;
211;SDS011;16228;48.800;9.002;2022-10-16T15:45:12;2.60;;;1.87;;
211;SDS011;16228;48.800;9.002;2022-10-16T15:47:40;2.17;;;1.70;;
211;SDS011;16228;48.800;9.002;2022-10-16T15:50:10;1.73;;;1.50;;
211;SDS011;16228;48.800;9.002;2022-10-16T15:52:38;2.20;;;2.00;;
211;SDS011;16228;48.800;9.002;2022-10-16T15:55:06;2.53;;;2.10;;
211;SDS011;16228;48.800;9.002;2022-10-16T15:57:34;4.30;;;2.17;;
211;SDS011;16228;48.800;9.002;2022-10-16T16:00:04;2.40;;;1.77;;
211;SDS011;16228;48.800;9.002;2022-10-16T16:02:33;5.47;;;1.80;;
211;SDS011;16228;48.800;9.002;2022-10-16T16:05:00;3.00;;;1.80;;
211;SDS011;16228;48.800;9.002;2022-10-16T16:07:29;2.10;;;1.90;;
211;SDS011;16228;48.800;9.002;2022-10-16T16:09:58;2.20;;;1.87;;
211;SDS011;16228;48.800;9.002;2022-10-16T16:12:26;3.37;;;1.80;;
211;SDS011;16228;48.800;9.002;2022-10-16T16:14:53;3.17;;;1.80;;
211;SDS011;16228;48.800;9.002;2022-10-16T16:17:19;3.47;;;2.27;;
211;SDS011;16228;48.800;9.002;2022-10-16T16:19:46;3.20;;;2.20;;
211;SDS011;16228;48.800;9.002;2022-10-16T16:22:13;3.00;;;2.00;;
211;SDS011;16228;48.800;9.002;2022-10-16T16:24:42;2.90;;;1.80;;
211;SDS011;16228;48.800;9.002;2022-10-16T16:27:09;2.87;;;1.90;;
211;SDS011;16228;48.800;9.002;2022-10-16T16:29:36;1.97;;;1.80;;
211;SDS011;16228;48.800;9.002;2022-10-16T16:32:03;3.47;;;1.90;;
211;SDS011;16228;48.800;9.002;2022-10-16T16:34:30;1.77;;;1.67;;
211;SDS011;16228;48.800;9.002;2022-10-16T16:36:57;2.93;;;1.87;;
211;SDS011;16228;48.800;9.002;2022-10-16T16:39:24;3.47;;;2.67;;
211;SDS011;16228;48.800;9.002;2022-10-16T16:41:54;4.10;;;2.23;;
211;SDS011;16228;48.800;9.002;2022-10-16T16:44:22;3.10;;;2.80;;
211;SDS011;16228;48.800;9.002;2022-10-16T16:46:49;5.47;;;3.07;;
211;SDS011;16228;48.800;9.002;2022-10-16T16:49:16;5.37;;;3.03;;
211;SDS011;16228;48.800;9.002;2022-10-16T16:51:43;3.40;;;2.67;;
211;SDS011;16228;48.800;9.002;2022-10-16T16:54:10;6.80;;;2.70;;
211;SDS011;16228;48.800;9.002;2022-10-16T16:56:38;3.90;;;2.70;;
211;SDS011;16228;48.800;9.002;2022-10-16T16:59:11;4.50;;;2.87;;
211;SDS011;16228;48.800;9.002;2022-10-16T17:01:40;3.77;;;3.13;;
211;SDS011;16228;48.800;9.002;2022-10-16T17:04:07;3.20;;;2.77;;
211;SDS011;16228;48.800;9.002;2022-10-16T17:06:35;10.60;;;3.40;;
211;SDS011;16228;48.800;9.002;2022-10-16T17:09:02;4.50;;;3.03;;